Terminal Aerodrome Forecast
Issued by NWS Cleveland, OH

Home | Current Version | Previous Version | Graphics & Text | Print | Product List | Glossary On
Versions: 1 2 3 4 5 6 7 8 9 10 11 12 13 14
419
FTUS41 KCLE 182337
TAFYNG
TAF
KYNG 182337Z 1900/1924 VRB02KT P6SM FEW250
     FM191100 VRB03KT 5SM BR SCT250
     FM191300 22004KT P6SM SCT250
     FM191700 27006KT P6SM SCT040=

USA.gov is the U.S. government's official web portal to all federal, state and local government web resources and services.